createdAt,value
2018-05-14T00:02:24.373Z,0.00
2018-05-14T00:03:24.539Z,0.00
2018-05-14T00:04:24.716Z,0.00
2018-05-14T00:05:24.874Z,0.00
2018-05-14T00:06:25.060Z,0.00
2018-05-14T00:07:25.235Z,0.00
2018-05-14T00:08:25.409Z,0.00
2018-05-14T00:09:25.573Z,0.00
2018-05-14T00:10:25.761Z,0.00
2018-05-14T00:11:25.925Z,0.00
2018-05-14T00:12:26.115Z,0.00
2018-05-14T00:13:26.300Z,0.00
2018-05-14T00:14:26.478Z,0.00
2018-05-14T00:15:26.673Z,0.00
2018-05-14T00:17:59.019Z,0.00
2018-05-14T00:18:59.169Z,0.00
2018-05-14T00:19:59.386Z,0.00
2018-05-14T00:20:59.431Z,0.00
2018-05-14T00:21:59.642Z,0.00
2018-05-14T00:22:59.811Z,0.00
2018-05-14T00:24:00.037Z,0.00
2018-05-14T00:25:00.157Z,0.00
2018-05-14T00:26:00.323Z,0.00
2018-05-14T00:27:00.496Z,0.00
2018-05-14T00:28:00.665Z,0.00
2018-05-14T00:29:00.851Z,0.00
2018-05-14T00:30:01.015Z,0.00
2018-05-14T00:31:01.187Z,0.00
2018-05-14T00:32:01.360Z,0.00
2018-05-14T00:35:52.234Z,0.00
2018-05-14T00:36:52.031Z,0.00
2018-05-14T00:37:52.208Z,0.00
2018-05-14T00:38:52.366Z,0.00
2018-05-14T00:39:52.540Z,0.00
2018-05-14T00:40:52.703Z,0.00
2018-05-14T00:41:52.862Z,0.00
2018-05-14T00:42:53.034Z,0.00
2018-05-14T00:43:53.200Z,0.00
2018-05-14T00:44:53.372Z,0.00
2018-05-14T00:47:35.622Z,0.00
2018-05-14T00:48:35.791Z,0.00
2018-05-14T00:49:35.957Z,0.00
2018-05-14T00:50:36.127Z,0.00
2018-05-14T00:51:36.293Z,0.00
2018-05-14T00:52:36.464Z,0.00
2018-05-14T00:53:36.633Z,0.00
2018-05-14T00:54:36.820Z,0.00
2018-05-14T00:55:36.961Z,0.00
2018-05-14T00:56:37.119Z,0.00
2018-05-14T00:57:37.393Z,0.00
2018-05-14T00:58:37.504Z,0.00
2018-05-14T00:59:37.651Z,0.00
2018-05-14T01:00:37.809Z,0.00
2018-05-14T01:01:37.979Z,0.00
2018-05-14T01:04:20.231Z,0.00
2018-05-14T01:05:20.395Z,0.00
2018-05-14T01:06:20.573Z,0.00
2018-05-14T01:07:20.728Z,0.00
2018-05-14T01:08:20.900Z,0.00
2018-05-14T01:09:21.064Z,0.00
2018-05-14T01:10:21.234Z,0.00
2018-05-14T01:11:21.403Z,0.00
2018-05-14T01:12:21.569Z,0.00
2018-05-14T01:13:21.750Z,0.00
2018-05-14T01:15:54.022Z,0.00
2018-05-14T01:16:54.176Z,0.00
2018-05-14T01:17:54.361Z,0.00
2018-05-14T01:18:54.527Z,0.00
2018-05-14T01:19:54.692Z,0.00
2018-05-14T01:20:54.857Z,0.00
2018-05-14T01:21:55.022Z,0.00
2018-05-14T01:22:55.189Z,0.00
2018-05-14T01:23:55.363Z,0.00
2018-05-14T01:24:55.532Z,0.00
2018-05-14T01:25:55.698Z,0.00
2018-05-14T01:26:55.864Z,0.00
2018-05-14T01:27:56.029Z,0.00
2018-05-14T01:28:56.203Z,0.00
2018-05-14T01:29:56.362Z,0.00
2018-05-14T01:32:28.675Z,0.00
2018-05-14T01:33:28.833Z,0.00
2018-05-14T01:34:29.057Z,0.00
2018-05-14T01:35:29.224Z,0.00
2018-05-14T01:36:29.389Z,0.00
2018-05-14T01:37:29.583Z,0.00
2018-05-14T01:38:29.739Z,0.00
2018-05-14T01:39:29.892Z,0.00
2018-05-14T01:40:30.056Z,0.00
2018-05-14T01:41:30.222Z,0.00
2018-05-14T01:42:30.399Z,0.00
2018-05-14T01:43:31.174Z,0.00
2018-05-14T01:44:31.131Z,0.00
2018-05-14T01:45:30.855Z,0.00
2018-05-14T01:46:31.014Z,0.00
2018-05-14T01:49:13.319Z,0.00
2018-05-14T01:50:13.479Z,0.00
2018-05-14T01:51:13.642Z,0.00
2018-05-14T01:52:13.818Z,0.00
2018-05-14T01:53:13.988Z,0.00
2018-05-14T01:54:14.152Z,0.00
2018-05-14T01:55:14.332Z,0.00
2018-05-14T01:56:14.495Z,0.00
2018-05-14T01:57:14.659Z,0.00
2018-05-14T01:58:14.832Z,0.00
2018-05-14T02:00:57.102Z,0.00
2018-05-14T02:01:57.269Z,0.00
2018-05-14T02:02:57.471Z,0.00
2018-05-14T02:03:57.686Z,0.00
2018-05-14T02:04:57.820Z,0.00
2018-05-14T02:05:58.002Z,0.00
2018-05-14T02:06:58.219Z,0.00
2018-05-14T02:07:58.343Z,0.00
2018-05-14T02:08:58.511Z,0.00
2018-05-14T02:09:59.632Z,0.00
2018-05-14T02:10:58.811Z,0.00
2018-05-14T02:11:58.963Z,0.00
2018-05-14T02:12:59.127Z,0.00
2018-05-14T02:13:59.299Z,0.00
2018-05-14T02:14:59.462Z,0.00
2018-05-14T02:17:41.733Z,0.00
2018-05-14T02:18:41.902Z,0.00
2018-05-14T02:19:42.069Z,0.00
2018-05-14T02:20:42.232Z,0.00
2018-05-14T02:21:42.397Z,0.00
2018-05-14T02:22:42.553Z,0.00
2018-05-14T02:23:42.738Z,0.00
2018-05-14T02:24:42.914Z,0.00
2018-05-14T02:25:43.102Z,0.00
2018-05-14T02:26:43.276Z,0.00
2018-05-14T02:27:43.427Z,0.00
2018-05-14T02:28:43.637Z,0.00
2018-05-14T02:29:43.791Z,0.00
2018-05-14T02:30:43.967Z,0.00
2018-05-14T02:31:44.174Z,0.00
2018-05-14T02:34:16.457Z,0.00
2018-05-14T02:35:16.605Z,0.00
2018-05-14T02:36:16.769Z,0.00
2018-05-14T02:37:16.926Z,0.00
2018-05-14T02:38:17.093Z,0.00
2018-05-14T02:39:17.259Z,0.00
2018-05-14T02:40:17.425Z,0.00
2018-05-14T02:41:17.591Z,0.00
2018-05-14T02:42:17.782Z,0.00
2018-05-14T02:43:17.935Z,0.00
2018-05-14T02:44:18.093Z,0.00
2018-05-14T02:45:18.258Z,0.00
2018-05-14T02:46:18.429Z,0.00
2018-05-14T02:47:18.596Z,0.00
2018-05-14T02:48:18.759Z,0.00
2018-05-14T02:50:51.083Z,0.00
2018-05-14T02:51:51.204Z,0.00
2018-05-14T02:52:51.362Z,0.00
2018-05-14T02:53:51.535Z,0.00
2018-05-14T02:54:51.700Z,0.00
2018-05-14T02:55:51.901Z,0.00
2018-05-14T02:56:52.087Z,0.00
2018-05-14T02:57:52.228Z,0.00
2018-05-14T02:58:52.389Z,0.00
2018-05-14T02:59:52.652Z,0.00
2018-05-14T03:00:52.687Z,0.00
2018-05-14T03:01:52.887Z,0.00
2018-05-14T03:02:53.055Z,0.00
2018-05-14T03:03:53.191Z,0.00
2018-05-14T03:04:53.367Z,0.00
2018-05-14T03:07:25.635Z,0.00
2018-05-14T03:08:25.801Z,0.00
2018-05-14T03:09:25.964Z,0.00
2018-05-14T03:10:26.161Z,0.00
2018-05-14T03:11:26.297Z,0.00
2018-05-14T03:12:26.457Z,0.00
2018-05-14T03:13:26.621Z,0.00
2018-05-14T03:14:26.788Z,0.00
2018-05-14T03:15:26.956Z,0.00
2018-05-14T03:16:27.157Z,0.00
2018-05-14T03:17:27.323Z,0.00
2018-05-14T03:18:27.487Z,0.00
2018-05-14T03:19:28.164Z,0.00
2018-05-14T03:20:27.827Z,0.00
2018-05-14T03:21:27.992Z,0.00
2018-05-14T03:24:00.269Z,0.00
2018-05-14T03:25:00.440Z,0.00
2018-05-14T03:26:00.620Z,0.00
2018-05-14T03:27:00.788Z,0.00
2018-05-14T03:28:00.952Z,0.00
2018-05-14T03:29:01.117Z,0.00
2018-05-14T03:30:01.306Z,0.00
2018-05-14T03:31:01.472Z,0.00
2018-05-14T03:32:01.635Z,0.00
2018-05-14T03:33:01.802Z,0.00
2018-05-14T03:35:44.085Z,0.00
2018-05-14T03:36:44.255Z,0.00
2018-05-14T03:37:44.412Z,0.00
2018-05-14T03:38:44.581Z,0.00
2018-05-14T03:39:44.747Z,0.00
2018-05-14T03:40:44.911Z,0.00
2018-05-14T03:41:45.069Z,0.00
2018-05-14T03:42:45.302Z,0.00
2018-05-14T03:43:45.397Z,0.00
2018-05-14T03:44:45.574Z,0.00
2018-05-14T03:45:45.749Z,0.00
2018-05-14T03:46:45.909Z,0.00
2018-05-14T03:47:46.078Z,0.00
2018-05-14T03:48:46.246Z,0.00
2018-05-14T03:49:46.403Z,0.00
2018-05-14T03:52:28.976Z,0.00
2018-05-14T03:53:29.151Z,0.00
2018-05-14T03:54:29.313Z,0.00
2018-05-14T03:55:29.491Z,0.00
2018-05-14T03:56:29.668Z,0.00
2018-05-14T03:57:29.883Z,0.00
2018-05-14T03:58:30.038Z,0.00
2018-05-14T03:59:30.204Z,0.00
2018-05-14T04:00:30.369Z,0.00
2018-05-14T04:01:30.537Z,0.00
2018-05-14T04:02:30.769Z,0.00
2018-05-14T04:03:30.864Z,0.00
2018-05-14T04:04:31.032Z,0.00
2018-05-14T04:05:31.195Z,0.00
2018-05-14T04:06:31.360Z,0.00
2018-05-14T04:09:13.612Z,0.00
2018-05-14T04:10:13.782Z,0.00
2018-05-14T04:11:13.944Z,0.00
2018-05-14T04:12:14.112Z,0.00
2018-05-14T04:13:14.276Z,0.00
2018-05-14T04:14:15.159Z,0.00
2018-05-14T04:15:14.573Z,0.00
2018-05-14T04:16:14.753Z,0.00
2018-05-14T04:17:14.935Z,0.00
2018-05-14T04:18:15.087Z,0.00
2018-05-14T04:19:15.254Z,0.00
2018-05-14T04:20:15.418Z,0.00
2018-05-14T04:21:15.587Z,0.00
2018-05-14T04:22:15.758Z,0.00
2018-05-14T04:23:15.906Z,0.00
2018-05-14T04:25:58.490Z,0.00
2018-05-14T04:27:05.508Z,0.00
2018-05-14T04:27:58.441Z,0.00
2018-05-14T04:28:58.666Z,0.00
2018-05-14T04:29:58.785Z,0.00
2018-05-14T04:30:58.953Z,0.00
2018-05-14T04:31:59.177Z,0.00
2018-05-14T04:32:59.328Z,0.00
2018-05-14T04:33:59.495Z,0.00
2018-05-14T04:34:59.687Z,0.00
2018-05-14T04:35:59.834Z,0.00
2018-05-14T04:37:00.021Z,0.00
2018-05-14T04:38:00.210Z,0.00
2018-05-14T04:39:00.400Z,0.00
2018-05-14T04:40:00.658Z,0.00
2018-05-14T04:41:00.714Z,0.00
2018-05-14T04:43:43.401Z,0.00
2018-05-14T04:44:43.444Z,0.00
2018-05-14T04:45:43.620Z,0.00
2018-05-14T04:46:43.784Z,0.00
2018-05-14T04:47:43.954Z,0.00
2018-05-14T04:48:44.127Z,0.00
2018-05-14T04:49:44.277Z,0.00
2018-05-14T04:50:44.444Z,0.00
2018-05-14T04:51:44.610Z,0.00
2018-05-14T04:52:44.776Z,0.00
2018-05-14T04:55:27.069Z,0.00
2018-05-14T04:56:27.234Z,0.00
2018-05-14T04:57:27.419Z,0.00
2018-05-14T04:58:27.581Z,0.00
2018-05-14T04:59:27.741Z,0.00
2018-05-14T05:00:27.914Z,0.00
2018-05-14T05:01:28.115Z,0.00
2018-05-14T05:02:28.278Z,0.00
2018-05-14T05:03:35.910Z,0.00
2018-05-14T05:04:28.594Z,0.00
2018-05-14T05:05:28.757Z,0.00
2018-05-14T05:06:28.934Z,0.00
2018-05-14T05:07:29.133Z,0.00
2018-05-14T05:08:29.293Z,0.00
2018-05-14T05:09:29.455Z,0.00
2018-05-14T05:10:29.663Z,0.00
2018-05-14T05:11:29.869Z,0.00
2018-05-14T05:12:30.141Z,0.00
2018-05-14T05:13:31.015Z,0.00
2018-05-14T05:14:30.221Z,0.00
2018-05-14T05:15:30.396Z,0.00
2018-05-14T05:16:39.517Z,0.00
2018-05-14T05:17:30.682Z,0.00
2018-05-14T05:18:30.895Z,0.00
2018-05-14T05:19:31.066Z,0.00
2018-05-14T05:20:31.233Z,0.00
2018-05-14T05:21:31.403Z,0.00
2018-05-14T05:22:31.561Z,0.00
2018-05-14T05:23:31.785Z,0.00
2018-05-14T05:24:31.958Z,0.00
2018-05-14T05:25:32.173Z,0.00
2018-05-14T05:26:33.050Z,0.00
2018-05-14T05:27:40.503Z,0.00
2018-05-14T05:28:32.650Z,0.00
2018-05-14T05:29:32.829Z,0.00
2018-05-14T05:30:33.001Z,0.00
2018-05-14T05:31:33.146Z,0.00
2018-05-14T05:32:33.411Z,0.00
2018-05-14T05:33:34.133Z,0.00
2018-05-14T05:34:54.784Z,0.00
2018-05-14T05:35:33.790Z,0.00
2018-05-14T05:36:33.985Z,0.00
2018-05-14T05:37:34.164Z,0.00
2018-05-14T05:40:16.762Z,0.00
2018-05-14T05:41:16.931Z,0.00
2018-05-14T05:42:23.962Z,0.00
2018-05-14T05:43:17.244Z,0.00
2018-05-14T05:44:17.445Z,0.00
2018-05-14T05:45:17.633Z,0.00
2018-05-14T05:46:17.783Z,0.00
2018-05-14T05:47:18.017Z,1.15
2018-05-14T05:48:18.052Z,4.98
2018-05-14T05:49:18.267Z,5.84
2018-05-14T05:50:18.411Z,3.54
2018-05-14T05:51:18.582Z,5.36
2018-05-14T05:52:18.792Z,17.25
2018-05-14T05:53:18.949Z,22.64
2018-05-14T05:54:19.127Z,30.51
2018-05-14T05:57:13.423Z,47.03
2018-05-14T05:58:13.594Z,51.16
2018-05-14T05:59:13.762Z,55.12
2018-05-14T06:00:14.423Z,59.86
2018-05-14T06:01:14.113Z,61.68
2018-05-14T06:02:14.251Z,72.58
2018-05-14T06:03:14.431Z,77.19
2018-05-14T06:04:15.432Z,74.60
2018-05-14T06:05:14.723Z,78.63
2018-05-14T06:06:14.888Z,79.92
2018-05-14T06:07:15.084Z,82.71
2018-05-14T06:08:15.228Z,81.65
2018-05-14T06:09:15.410Z,79.60
2018-05-14T06:10:15.596Z,80.79
2018-05-14T06:11:15.769Z,80.65
2018-05-14T06:13:48.043Z,83.34
2018-05-14T06:14:48.212Z,84.11
2018-05-14T06:15:48.409Z,80.07
2018-05-14T06:16:48.578Z,81.04
2018-05-14T06:17:48.747Z,82.43
2018-05-14T06:18:48.914Z,82.86
2018-05-14T06:19:49.086Z,83.97
2018-05-14T06:20:56.722Z,81.76
2018-05-14T06:21:50.097Z,81.57
2018-05-14T06:22:49.513Z,80.66
2018-05-14T06:23:49.828Z,82.53
2018-05-14T06:24:49.957Z,82.82
2018-05-14T06:25:58.137Z,86.76
2018-05-14T06:26:50.208Z,85.89
2018-05-14T06:27:50.459Z,86.57
2018-05-14T06:28:50.552Z,86.66
2018-05-14T06:29:50.723Z,90.22
2018-05-14T06:30:50.932Z,87.53
2018-05-14T06:31:51.105Z,89.11
2018-05-14T06:32:51.275Z,87.76
2018-05-14T06:33:51.451Z,84.88
2018-05-14T06:34:51.633Z,86.61
2018-05-14T06:35:51.803Z,88.06
2018-05-14T06:38:34.112Z,89.88
2018-05-14T06:39:34.313Z,88.73
2018-05-14T06:40:34.487Z,90.75
2018-05-14T06:41:34.656Z,90.36
2018-05-14T06:42:34.826Z,91.42
2018-05-14T06:43:35.045Z,95.40
2018-05-14T06:44:35.200Z,95.70
2018-05-14T06:45:35.367Z,96.56
2018-05-14T06:46:35.529Z,95.45
2018-05-14T06:47:35.725Z,91.80
2018-05-14T06:48:35.936Z,92.76
2018-05-14T06:49:36.100Z,92.96
2018-05-14T06:50:36.265Z,91.32
2018-05-14T06:51:36.435Z,92.19
2018-05-14T06:52:36.605Z,92.86
2018-05-14T06:55:19.125Z,95.65
2018-05-14T06:56:27.221Z,95.89
2018-05-14T06:57:19.257Z,95.07
2018-05-14T06:58:19.430Z,94.35
2018-05-14T06:59:19.647Z,95.79
2018-05-14T07:00:27.251Z,95.31
2018-05-14T07:01:19.911Z,96.89
2018-05-14T07:02:20.074Z,98.05
2018-05-14T07:03:20.241Z,96.80
2018-05-14T07:04:20.405Z,97.67
2018-05-14T07:05:20.579Z,96.47
2018-05-14T07:06:20.741Z,94.73
2018-05-14T07:07:20.904Z,95.31
2018-05-14T07:08:21.071Z,93.24
2018-05-14T07:09:21.237Z,93.15
2018-05-14T07:10:21.430Z,94.21
2018-05-14T07:11:22.494Z,92.67
2018-05-14T07:12:22.579Z,92.61
2018-05-14T07:13:21.940Z,93.58
2018-05-14T07:14:22.136Z,94.35
2018-05-14T07:17:04.410Z,90.21
2018-05-14T07:18:04.696Z,90.50
2018-05-14T07:19:04.762Z,90.50
2018-05-14T07:20:04.967Z,90.12
2018-05-14T07:21:05.136Z,90.21
2018-05-14T07:22:10.264Z,90.89
2018-05-14T07:23:10.307Z,89.06
2018-05-14T07:24:10.484Z,85.31
2018-05-14T07:25:10.644Z,90.89
2018-05-14T07:26:10.814Z,89.68
2018-05-14T07:27:18.759Z,91.22
2018-05-14T07:28:11.159Z,90.83
2018-05-14T07:29:11.344Z,95.45
2018-05-14T07:30:11.606Z,96.17
2018-05-14T07:31:11.730Z,95.21
2018-05-14T07:32:12.069Z,97.42
2018-05-14T07:33:12.054Z,99.06
2018-05-14T07:34:12.265Z,99.59
2018-05-14T07:35:12.436Z,98.54
2018-05-14T07:36:12.671Z,99.88
2018-05-14T07:37:12.794Z,96.99
2018-05-14T07:38:12.953Z,99.99
2018-05-14T07:39:13.144Z,99.21
2018-05-14T07:40:13.328Z,99.99
2018-05-14T07:41:13.494Z,99.99
2018-05-14T07:43:45.835Z,99.99
2018-05-14T07:44:45.998Z,99.88
2018-05-14T07:45:46.254Z,97.57
2018-05-14T07:46:46.398Z,96.99
2018-05-14T07:47:46.529Z,95.93
2018-05-14T07:48:46.725Z,96.32
2018-05-14T07:49:46.888Z,96.84
2018-05-14T07:50:47.045Z,95.21
2018-05-14T07:51:47.242Z,92.12
2018-05-14T07:52:47.482Z,89.85
2018-05-14T07:53:47.606Z,89.32
2018-05-14T07:54:47.817Z,92.22
2018-05-14T07:55:48.004Z,92.89
2018-05-14T07:56:48.152Z,86.33
2018-05-14T07:57:48.360Z,90.48
2018-05-14T08:00:20.903Z,88.17
2018-05-14T08:01:28.147Z,89.75
2018-05-14T08:02:21.185Z,90.72
2018-05-14T08:03:21.387Z,81.45
2018-05-14T08:04:21.561Z,79.43
2018-05-14T08:06:54.196Z,82.51
2018-05-14T08:07:54.361Z,81.35
2018-05-14T08:08:54.528Z,81.41
2018-05-14T08:09:54.707Z,81.45
2018-05-14T08:10:54.864Z,83.00
2018-05-14T08:11:55.041Z,81.90
2018-05-14T08:12:55.206Z,82.18
2018-05-14T08:13:55.381Z,84.31
2018-05-14T08:14:55.547Z,83.73
2018-05-14T08:15:55.732Z,84.93
2018-05-14T08:16:55.898Z,83.39
2018-05-14T08:17:56.062Z,79.33
2018-05-14T08:18:56.230Z,87.63
2018-05-14T08:21:28.723Z,77.50
2018-05-14T08:22:35.917Z,74.64
2018-05-14T08:23:29.172Z,79.17
2018-05-14T08:24:30.048Z,78.02
2018-05-14T08:25:36.711Z,68.65
2018-05-14T08:26:29.391Z,67.88
2018-05-14T08:27:29.593Z,68.65
2018-05-14T08:28:29.726Z,75.54
2018-05-14T08:29:30.149Z,68.20
2018-05-14T08:30:30.061Z,65.50
2018-05-14T08:31:30.288Z,69.56
2018-05-14T08:32:30.398Z,65.30
2018-05-14T08:33:30.571Z,64.53
2018-05-14T08:34:30.772Z,64.05
2018-05-14T08:35:30.957Z,65.40
2018-05-14T08:36:31.118Z,66.56
2018-05-14T08:37:31.278Z,67.52
2018-05-14T08:38:31.445Z,67.14
2018-05-14T08:39:31.613Z,68.88
2018-05-14T08:42:14.248Z,64.14
2018-05-14T08:43:14.302Z,62.70
2018-05-14T08:44:21.922Z,62.89
2018-05-14T08:45:14.590Z,64.72
2018-05-14T08:46:14.749Z,62.89
2018-05-14T08:47:14.937Z,64.72
2018-05-14T08:48:15.134Z,74.00
2018-05-14T08:49:15.326Z,62.44
2018-05-14T08:50:23.014Z,60.09
2018-05-14T08:51:15.677Z,61.95
2018-05-14T08:52:15.851Z,63.73
2018-05-14T08:53:16.053Z,58.37
2018-05-14T08:54:16.293Z,57.60
2018-05-14T08:55:16.419Z,57.31
2018-05-14T08:56:16.609Z,59.05
2018-05-14T08:57:16.789Z,57.60
2018-05-14T08:58:17.072Z,58.37
2018-05-14T08:59:17.255Z,61.66
2018-05-14T09:00:17.246Z,61.76
2018-05-14T09:01:17.411Z,57.34
2018-05-14T09:02:17.577Z,54.15
2018-05-14T09:03:17.790Z,54.63
2018-05-14T09:04:17.975Z,55.77
2018-05-14T09:06:50.692Z,56.83
2018-05-14T09:07:50.546Z,55.57
2018-05-14T09:08:50.709Z,54.61
2018-05-14T09:09:50.874Z,54.03
2018-05-14T09:10:51.094Z,54.13
2018-05-14T09:11:51.306Z,55.41
2018-05-14T09:12:51.612Z,54.15
2018-05-14T09:13:51.707Z,55.02
2018-05-14T09:14:51.885Z,53.86
2018-05-14T09:15:52.067Z,53.77
2018-05-14T09:16:52.245Z,52.80
2018-05-14T09:17:52.413Z,52.31
2018-05-14T09:18:52.609Z,52.05
2018-05-14T09:19:53.072Z,52.63
2018-05-14T09:21:01.449Z,52.53
2018-05-14T09:21:53.103Z,50.79
2018-05-14T09:22:53.797Z,51.47
2018-05-14T09:23:53.494Z,50.60
2018-05-14T09:24:53.681Z,49.65
2018-05-14T09:25:53.884Z,49.37
2018-05-14T09:26:54.037Z,49.95
2018-05-14T09:28:02.354Z,49.07
2018-05-14T09:28:54.422Z,49.87
2018-05-14T09:29:54.627Z,48.32
2018-05-14T09:30:54.800Z,47.55
2018-05-14T09:31:54.991Z,47.72
2018-05-14T09:32:55.176Z,48.20
2018-05-14T09:33:55.378Z,48.97
2018-05-14T09:34:55.563Z,48.95
2018-05-14T09:35:55.772Z,48.59
2018-05-14T09:36:55.964Z,48.88
2018-05-14T09:37:56.751Z,49.07
2018-05-14T09:38:56.358Z,48.88
2018-05-14T09:39:56.593Z,48.11
2018-05-14T09:40:56.772Z,47.62
2018-05-14T09:41:56.961Z,47.62
2018-05-14T09:43:04.840Z,48.32
2018-05-14T09:43:57.282Z,47.45
2018-05-14T09:44:57.617Z,47.06
2018-05-14T09:45:57.568Z,48.61
2018-05-14T09:46:57.743Z,47.26
2018-05-14T09:47:57.930Z,46.87
2018-05-14T09:48:58.137Z,47.06
2018-05-14T09:50:05.528Z,46.48
2018-05-14T09:50:58.459Z,46.39
2018-05-14T09:51:58.630Z,47.16
2018-05-14T09:52:58.797Z,46.87
2018-05-14T09:53:58.962Z,46.97
2018-05-14T09:54:59.158Z,47.36
2018-05-14T09:55:59.363Z,46.77
2018-05-14T09:56:59.550Z,46.97
2018-05-14T09:57:59.728Z,46.67
2018-05-14T09:59:00.890Z,45.81
2018-05-14T10:00:00.077Z,45.13
2018-05-14T10:02:43.811Z,46.19
2018-05-14T10:03:43.665Z,45.61
2018-05-14T10:04:43.871Z,45.44
2018-05-14T10:05:45.003Z,44.37
2018-05-14T10:06:45.263Z,44.37
2018-05-14T10:07:44.411Z,44.18
2018-05-14T10:08:51.813Z,44.09
2018-05-14T10:09:44.765Z,44.74
2018-05-14T10:10:44.986Z,45.44
2018-05-14T10:13:17.049Z,43.79
2018-05-14T10:14:17.269Z,43.70
2018-05-14T10:15:17.378Z,43.41
2018-05-14T10:16:17.563Z,43.96
2018-05-14T10:17:17.725Z,43.99
2018-05-14T10:18:17.919Z,44.93
2018-05-14T10:19:18.105Z,44.47
2018-05-14T10:20:18.261Z,44.37
2018-05-14T10:21:18.476Z,44.37
2018-05-14T10:22:18.633Z,43.89
2018-05-14T10:23:18.833Z,43.50
2018-05-14T10:24:19.017Z,42.72
2018-05-14T10:25:19.790Z,42.34
2018-05-14T10:26:19.353Z,42.17
2018-05-14T10:27:19.631Z,41.97
2018-05-14T10:30:01.883Z,41.80
2018-05-14T10:31:01.931Z,41.61
2018-05-14T10:32:09.329Z,41.80
2018-05-14T10:33:02.268Z,41.78
2018-05-14T10:34:02.442Z,41.49
2018-05-14T10:36:34.761Z,41.49
2018-05-14T10:37:34.912Z,41.97
2018-05-14T10:38:35.130Z,40.91
2018-05-14T10:39:35.288Z,41.76
2018-05-14T10:40:35.468Z,42.24
2018-05-14T10:41:35.652Z,42.85
2018-05-14T10:42:35.870Z,43.23
2018-05-14T10:43:35.988Z,43.43
2018-05-14T10:44:36.121Z,44.01
2018-05-14T10:45:36.316Z,43.72
2018-05-14T10:46:36.544Z,44.20
2018-05-14T10:47:36.703Z,44.30
2018-05-14T10:48:36.871Z,44.30
2018-05-14T10:49:37.043Z,43.91
2018-05-14T10:50:37.211Z,43.72
2018-05-14T10:53:19.585Z,44.59
2018-05-14T10:54:30.208Z,43.82
2018-05-14T10:55:19.829Z,43.72
2018-05-14T10:56:19.928Z,44.01
2018-05-14T10:57:27.779Z,44.01
2018-05-14T10:58:21.177Z,43.72
2018-05-14T10:59:20.419Z,43.72
2018-05-14T11:00:21.105Z,42.75
2018-05-14T11:01:20.660Z,42.86
2018-05-14T11:02:20.969Z,42.86
2018-05-14T11:03:20.961Z,42.67
2018-05-14T11:04:21.486Z,42.77
2018-05-14T11:05:21.398Z,43.91
2018-05-14T11:06:21.442Z,44.10
2018-05-14T11:07:22.500Z,44.01
2018-05-14T11:10:00.063Z,44.61
2018-05-14T11:10:55.035Z,44.13
2018-05-14T11:11:55.571Z,43.54
2018-05-14T11:12:56.022Z,42.29
2018-05-14T11:13:55.578Z,41.89
2018-05-14T11:14:55.962Z,41.70
2018-05-14T11:15:55.957Z,42.38
2018-05-14T11:16:56.386Z,41.80
2018-05-14T11:17:56.276Z,41.61
2018-05-14T11:18:56.522Z,41.31
2018-05-14T11:19:57.481Z,41.80
2018-05-14T11:20:56.928Z,41.89
2018-05-14T11:21:57.218Z,41.61
2018-05-14T11:22:57.234Z,41.51
2018-05-14T11:23:57.384Z,40.54
2018-05-14T11:26:29.955Z,40.44
2018-05-14T11:27:30.771Z,41.24
2018-05-14T11:28:30.303Z,41.24
2018-05-14T11:29:30.497Z,41.24
2018-05-14T11:30:30.676Z,41.53
2018-05-14T11:31:31.685Z,40.46
2018-05-14T11:32:30.983Z,39.98
2018-05-14T11:33:31.168Z,38.52
2018-05-14T11:34:31.329Z,38.91
2018-05-14T11:35:32.279Z,39.39
2018-05-14T11:36:31.723Z,39.95
2018-05-14T11:37:32.683Z,40.15
2018-05-14T11:38:32.227Z,40.25
2018-05-14T11:39:32.307Z,40.05
2018-05-14T11:40:33.207Z,39.86
2018-05-14T11:43:06.058Z,38.50
2018-05-14T11:44:06.216Z,38.50
2018-05-14T11:45:06.396Z,38.89
2018-05-14T11:46:06.645Z,38.68
2018-05-14T11:47:14.275Z,39.26
2018-05-14T11:48:06.936Z,39.26
2018-05-14T11:49:07.138Z,38.68
2018-05-14T11:50:14.871Z,38.78
2018-05-14T11:51:07.443Z,39.06
2018-05-14T11:52:07.609Z,39.26
2018-05-14T11:53:07.885Z,39.36
2018-05-14T11:54:07.963Z,39.45
2018-05-14T11:55:08.148Z,40.33
2018-05-14T11:56:08.328Z,39.94
2018-05-14T11:57:08.535Z,39.55
2018-05-14T11:58:08.893Z,39.67
2018-05-14T11:59:08.828Z,39.28
2018-05-14T12:00:08.987Z,39.47
2018-05-14T12:02:41.289Z,39.28
2018-05-14T12:03:41.483Z,39.29
2018-05-14T12:04:41.642Z,38.52
2018-05-14T12:05:41.824Z,38.62
2018-05-14T12:06:42.007Z,38.23
2018-05-14T12:07:42.233Z,38.52
2018-05-14T12:08:51.273Z,38.52
2018-05-14T12:09:42.623Z,38.50
2018-05-14T12:10:42.823Z,39.08
2018-05-14T12:11:50.453Z,40.05
2018-05-14T12:12:43.143Z,40.05
2018-05-14T12:13:51.304Z,39.95
2018-05-14T12:14:43.461Z,40.08
2018-05-14T12:15:43.645Z,39.98
2018-05-14T12:16:43.814Z,39.11
2018-05-14T12:17:43.987Z,39.11
2018-05-14T12:18:44.165Z,38.42
2018-05-14T12:19:44.352Z,39.01
2018-05-14T12:20:44.655Z,39.11
2018-05-14T12:21:44.719Z,39.11
2018-05-14T12:22:44.967Z,39.12
2018-05-14T12:25:27.145Z,38.54
2018-05-14T12:26:27.339Z,38.25
2018-05-14T12:27:27.525Z,37.49
2018-05-14T12:28:27.694Z,37.30
2018-05-14T12:29:27.877Z,37.37
2018-05-14T12:30:28.078Z,37.57
2018-05-14T12:31:28.419Z,37.47
2018-05-14T12:32:36.410Z,37.08
2018-05-14T12:33:28.455Z,37.08
2018-05-14T12:34:28.633Z,37.57
2018-05-14T12:35:28.803Z,37.57
2018-05-14T12:36:28.976Z,37.28
2018-05-14T12:37:29.296Z,37.37
2018-05-14T12:38:29.290Z,37.20
2018-05-14T12:39:29.519Z,37.20
2018-05-14T12:40:29.635Z,36.32
2018-05-14T12:41:29.809Z,35.55
2018-05-14T12:42:29.983Z,35.25
2018-05-14T12:45:12.371Z,35.82
2018-05-14T12:46:12.500Z,35.64
2018-05-14T12:47:12.612Z,34.67
2018-05-14T12:48:13.296Z,34.95
2018-05-14T12:49:12.959Z,35.24
2018-05-14T12:50:13.148Z,35.53
2018-05-14T12:51:13.335Z,35.33
2018-05-14T12:52:13.497Z,35.22
2018-05-14T12:53:13.697Z,34.56
2018-05-14T12:54:13.875Z,34.46
2018-05-14T12:55:14.042Z,34.56
2018-05-14T12:56:14.232Z,34.66
2018-05-14T12:57:23.102Z,34.66
2018-05-14T12:58:14.587Z,35.43
2018-05-14T12:59:15.333Z,35.63
2018-05-14T13:00:14.908Z,35.80
2018-05-14T13:01:23.106Z,36.02
2018-05-14T13:02:15.412Z,36.21
2018-05-14T13:03:15.499Z,34.66
2018-05-14T13:04:15.748Z,34.46
2018-05-14T13:05:15.826Z,34.46
2018-05-14T13:06:15.981Z,35.06
2018-05-14T13:07:16.178Z,34.67
2018-05-14T13:08:16.362Z,34.67
2018-05-14T13:09:16.531Z,34.09
2018-05-14T13:10:16.721Z,33.88
2018-05-14T13:11:16.891Z,34.27
2018-05-14T13:12:17.082Z,34.17
2018-05-14T13:13:17.309Z,34.46
2018-05-14T13:14:17.374Z,34.66
2018-05-14T13:15:17.578Z,34.36
2018-05-14T13:16:17.790Z,34.08
2018-05-14T13:20:31.769Z,33.22
2018-05-14T13:21:31.801Z,33.80
2018-05-14T13:22:31.993Z,33.70
2018-05-14T13:23:40.266Z,33.99
2018-05-14T13:24:34.265Z,33.51
2018-05-14T13:25:40.385Z,33.31
2018-05-14T13:26:32.594Z,33.31
2018-05-14T13:27:32.770Z,33.70
2018-05-14T13:28:32.942Z,33.41
2018-05-14T13:29:33.118Z,33.31
2018-05-14T13:30:33.284Z,33.01
2018-05-14T13:31:33.455Z,33.29
2018-05-14T13:32:33.625Z,34.19
2018-05-14T13:33:33.812Z,32.24
2018-05-14T13:34:33.977Z,31.76
2018-05-14T13:35:34.175Z,31.27
2018-05-14T13:38:16.768Z,31.95
2018-05-14T13:39:16.968Z,32.13
2018-05-14T13:40:17.132Z,33.11
2018-05-14T13:41:17.307Z,33.49
2018-05-14T13:42:17.521Z,33.69
2018-05-14T13:43:17.713Z,34.08
2018-05-14T13:44:17.883Z,34.36
2018-05-14T13:45:18.054Z,34.46
2018-05-14T13:46:25.735Z,34.77
2018-05-14T13:47:18.397Z,34.09
2018-05-14T13:48:18.605Z,33.22
2018-05-14T13:49:18.755Z,33.31
2018-05-14T13:50:26.491Z,33.51
2018-05-14T13:51:19.037Z,33.51
2018-05-14T13:52:19.204Z,33.41
2018-05-14T13:53:19.387Z,32.92
2018-05-14T13:54:19.583Z,33.31
2018-05-14T13:55:19.768Z,33.20
2018-05-14T13:56:20.284Z,33.49
2018-05-14T13:57:20.205Z,33.69
2018-05-14T13:58:20.369Z,33.59
2018-05-14T13:59:20.542Z,33.39
2018-05-14T14:00:21.468Z,33.69
2018-05-14T14:01:20.979Z,33.59
2018-05-14T14:02:21.042Z,33.20
2018-05-14T14:03:22.045Z,33.69
2018-05-14T14:04:21.446Z,33.98
2018-05-14T14:07:05.020Z,33.22
2018-05-14T14:09:35.702Z,33.59
2018-05-14T14:10:35.900Z,33.59
2018-05-14T14:11:36.052Z,33.88
2018-05-14T14:12:43.622Z,34.36
2018-05-14T14:13:36.447Z,33.80
2018-05-14T14:14:36.574Z,33.41
2018-05-14T14:15:36.775Z,33.62
2018-05-14T14:16:36.866Z,33.31
2018-05-14T14:17:37.016Z,33.61
2018-05-14T14:18:37.185Z,34.09
2018-05-14T14:19:37.391Z,33.81
2018-05-14T14:20:37.593Z,34.48
2018-05-14T14:21:37.767Z,34.87
2018-05-14T14:22:37.984Z,34.48
2018-05-14T14:23:38.358Z,34.11
2018-05-14T14:24:38.450Z,34.67